Terminal Aerodrome Forecast
Issued by NWS Charleston, WV

Current Version | Previous Version | Graphics & Text | Print | Product List | Glossary On
Versions: 1 2 3 4 5 6 7 8 9 10 11 12 13 14 15 16 17 18 19 20 21 22 23 24
000
FTUS41 KRLX 280800 AAA
TAFCRW
TAF AMD
KCRW 280813Z 2808/2906 24008G17KT 6SM -SHRA BKN030 OVC050
     FM281100 VRB03KT 4SM -SHRA BR BKN015 OVC025
     FM281400 VRB03KT 2SM -SHRA BR OVC008
     FM282000 VRB04KT 3SM -RA BR OVC015=

USA.gov is the U.S. government's official web portal to all federal, state and local government web resources and services.